Agapi S — D5AR6 — position and weather

sailwx.info

Track history (hours):
 
Tides and Currents Weather Stations Pressure Air Temp Water Temp Dewpoint Dewpoint Depression Visibility Wind Speed Wind Dir Waves Ship Positions

Agapi S

Last reported at 2018-Jan-20 14:20 UTC. Time now 2018-Jan-22 13:55 UTC.
Position N 25°22' W 079°37'.

Length 207 m; draft 6.4 m.

Type: Ship. MMSI: 636015430.

Date/timePositionNaut miles runAvg speedWind from/ knotsBaromVisibWave heightAir tempDewpointWater temp
2018-Jan-20 14:20N 25°22' W 079°37'611.6
2018-Jan-20 13:48N 25°28' W 079°36'411.7
2018-Jan-20 13:30N 25°32' W 079°35'611.5
2018-Jan-20 13:00N 25°37' W 079°35'611.4
2018-Jan-20 12:30N 25°43' W 079°34'611.5
2018-Jan-20 12:00N 25°49' W 079°33'611.7
2018-Jan-20 11:30N 25°54' W 079°32'611.8
2018-Jan-20 11:00N 26°00' W 079°31'611.6
2018-Jan-20 10:30N 26°06' W 079°29'713.1
2018-Jan-20 09:59N 26°09' W 079°23'713.7
2018-Jan-20 09:30N 26°13' W 079°17'  
2018-Jan-11 02:03N 35°51' W 025°37'112.0
2018-Jan-11 01:58N 35°52' W 025°37'612.6
2018-Jan-11 01:30N 35°57' W 025°34'612.9
2018-Jan-11 01:00N 36°03' W 025°31'613.0
2018-Jan-11 00:30N 36°09' W 025°29'612.7
2018-Jan-11 00:00N 36°15' W 025°26'612.6
2018-Jan-10 23:30N 36°21' W 025°24'612.7
2018-Jan-10 23:00N 36°27' W 025°21'611.7
2018-Jan-10 22:30N 36°32' W 025°17'611.6
2018-Jan-10 22:00N 36°34' W 025°10'611.9
2018-Jan-10 21:30N 36°36' W 025°03'612.2
2018-Jan-10 21:00N 36°38' W 024°56'611.9
2018-Jan-10 20:30N 36°40' W 024°49'612.2
2018-Jan-10 20:00N 36°43' W 024°42'612.3
2018-Jan-10 19:30N 36°44' W 024°35'612.6
2018-Jan-10 19:00N 36°47' W 024°27'612.6
2018-Jan-10 18:30N 36°49' W 024°20'612.7
2018-Jan-10 18:00N 36°52' W 024°13'612.8
2018-Jan-10 17:30N 36°55' W 024°06'612.4
2018-Jan-10 17:01N 36°58' W 023°59'612.4
2018-Jan-10 16:30N 37°00' W 023°52'611.7
2018-Jan-10 16:01N 37°04' W 023°46'713.0
2018-Jan-10 15:30N 37°10' W 023°43'612.7
2018-Jan-10 15:00N 37°16' W 023°39'612.8
2018-Jan-10 14:30N 37°21' W 023°36'  
Track history (hours):
 
Tides and Currents Weather Stations Pressure Air Temp Water Temp Dewpoint Dewpoint Depression Visibility Wind Speed Wind Dir Waves Ship Positions

Agapi S

Last reported at 2018-Jan-20 14:20 UTC. Time now 2018-Jan-22 13:55 UTC.
Position N 25°22' W 079°37'.

Length 207 m; draft 6.4 m.

Type: Ship. MMSI: 636015430.

Date/timePositionNaut miles runAvg speedWind from/ knotsBaromVisibWave heightAir tempDewpointWater temp
2018-Jan-20 14:20N 25°22' W 079°37'611.6
2018-Jan-20 13:48N 25°28' W 079°36'411.7
2018-Jan-20 13:30N 25°32' W 079°35'611.5
2018-Jan-20 13:00N 25°37' W 079°35'611.4
2018-Jan-20 12:30N 25°43' W 079°34'611.5
2018-Jan-20 12:00N 25°49' W 079°33'611.7
2018-Jan-20 11:30N 25°54' W 079°32'611.8
2018-Jan-20 11:00N 26°00' W 079°31'611.6
2018-Jan-20 10:30N 26°06' W 079°29'713.1
2018-Jan-20 09:59N 26°09' W 079°23'713.7
2018-Jan-20 09:30N 26°13' W 079°17'  
2018-Jan-11 02:03N 35°51' W 025°37'112.0
2018-Jan-11 01:58N 35°52' W 025°37'612.6
2018-Jan-11 01:30N 35°57' W 025°34'612.9
2018-Jan-11 01:00N 36°03' W 025°31'613.0
2018-Jan-11 00:30N 36°09' W 025°29'612.7
2018-Jan-11 00:00N 36°15' W 025°26'612.6
2018-Jan-10 23:30N 36°21' W 025°24'612.7
2018-Jan-10 23:00N 36°27' W 025°21'611.7
2018-Jan-10 22:30N 36°32' W 025°17'611.6
2018-Jan-10 22:00N 36°34' W 025°10'611.9
2018-Jan-10 21:30N 36°36' W 025°03'612.2
2018-Jan-10 21:00N 36°38' W 024°56'611.9
2018-Jan-10 20:30N 36°40' W 024°49'612.2
2018-Jan-10 20:00N 36°43' W 024°42'612.3
2018-Jan-10 19:30N 36°44' W 024°35'612.6
2018-Jan-10 19:00N 36°47' W 024°27'612.6
2018-Jan-10 18:30N 36°49' W 024°20'612.7
2018-Jan-10 18:00N 36°52' W 024°13'612.8
2018-Jan-10 17:30N 36°55' W 024°06'612.4
2018-Jan-10 17:01N 36°58' W 023°59'612.4
2018-Jan-10 16:30N 37°00' W 023°52'611.7
2018-Jan-10 16:01N 37°04' W 023°46'713.0
2018-Jan-10 15:30N 37°10' W 023°43'612.7
2018-Jan-10 15:00N 37°16' W 023°39'612.8
2018-Jan-10 14:30N 37°21' W 023°36'  

Dump ship's entire track history